sensor_id;sensor_type;location;lat;lon;timestamp;P1;durP1;ratioP1;P2;durP2;ratioP2
17965;SDS011;9108;53.204;10.424;2023-05-14T00:00:13;9.85;;;5.60;;
17965;SDS011;9108;53.204;10.424;2023-05-14T00:02:40;12.70;;;6.38;;
17965;SDS011;9108;53.204;10.424;2023-05-14T00:05:09;9.90;;;6.30;;
17965;SDS011;9108;53.204;10.424;2023-05-14T00:07:36;11.50;;;6.50;;
17965;SDS011;9108;53.204;10.424;2023-05-14T00:10:04;12.35;;;5.88;;
17965;SDS011;9108;53.204;10.424;2023-05-14T00:12:31;9.60;;;5.80;;
17965;SDS011;9108;53.204;10.424;2023-05-14T00:14:58;11.27;;;6.05;;
17965;SDS011;9108;53.204;10.424;2023-05-14T00:17:25;9.68;;;5.60;;
17965;SDS011;9108;53.204;10.424;2023-05-14T00:19:52;12.18;;;6.20;;
17965;SDS011;9108;53.204;10.424;2023-05-14T00:22:21;9.95;;;5.95;;
17965;SDS011;9108;53.204;10.424;2023-05-14T00:24:48;9.65;;;6.15;;
17965;SDS011;9108;53.204;10.424;2023-05-14T00:27:15;8.65;;;6.10;;
17965;SDS011;9108;53.204;10.424;2023-05-14T00:29:42;11.25;;;6.60;;
17965;SDS011;9108;53.204;10.424;2023-05-14T00:32:09;10.02;;;6.38;;
17965;SDS011;9108;53.204;10.424;2023-05-14T00:34:36;9.65;;;6.43;;
17965;SDS011;9108;53.204;10.424;2023-05-14T00:37:04;11.88;;;6.85;;
17965;SDS011;9108;53.204;10.424;2023-05-14T00:39:32;11.57;;;6.60;;
17965;SDS011;9108;53.204;10.424;2023-05-14T00:41:59;11.35;;;6.53;;
17965;SDS011;9108;53.204;10.424;2023-05-14T00:44:26;10.52;;;7.10;;
17965;SDS011;9108;53.204;10.424;2023-05-14T00:46:54;11.02;;;6.68;;
17965;SDS011;9108;53.204;10.424;2023-05-14T00:49:21;10.30;;;6.80;;
17965;SDS011;9108;53.204;10.424;2023-05-14T00:51:49;9.20;;;6.43;;
17965;SDS011;9108;53.204;10.424;2023-05-14T00:54:16;11.73;;;6.82;;
17965;SDS011;9108;53.204;10.424;2023-05-14T00:56:45;9.70;;;6.80;;
17965;SDS011;9108;53.204;10.424;2023-05-14T00:59:12;11.38;;;6.88;;
17965;SDS011;9108;53.204;10.424;2023-05-14T01:01:40;11.02;;;7.32;;
17965;SDS011;9108;53.204;10.424;2023-05-14T01:04:07;12.75;;;7.72;;
17965;SDS011;9108;53.204;10.424;2023-05-14T01:06:36;11.70;;;7.80;;
17965;SDS011;9108;53.204;10.424;2023-05-14T01:09:07;11.82;;;7.38;;
17965;SDS011;9108;53.204;10.424;2023-05-14T01:11:38;12.95;;;7.18;;
17965;SDS011;9108;53.204;10.424;2023-05-14T01:14:11;10.27;;;6.93;;
17965;SDS011;9108;53.204;10.424;2023-05-14T01:16:40;11.77;;;7.72;;
17965;SDS011;9108;53.204;10.424;2023-05-14T01:19:12;13.73;;;7.32;;
17965;SDS011;9108;53.204;10.424;2023-05-14T01:21:46;11.43;;;7.13;;
17965;SDS011;9108;53.204;10.424;2023-05-14T01:24:13;12.98;;;7.13;;
17965;SDS011;9108;53.204;10.424;2023-05-14T01:26:40;12.52;;;7.65;;
17965;SDS011;9108;53.204;10.424;2023-05-14T01:29:09;10.73;;;7.10;;
17965;SDS011;9108;53.204;10.424;2023-05-14T01:31:37;12.15;;;7.47;;
17965;SDS011;9108;53.204;10.424;2023-05-14T01:34:05;11.40;;;7.60;;
17965;SDS011;9108;53.204;10.424;2023-05-14T01:36:33;10.60;;;7.38;;
17965;SDS011;9108;53.204;10.424;2023-05-14T01:39:02;12.82;;;8.20;;
17965;SDS011;9108;53.204;10.424;2023-05-14T01:41:29;12.93;;;7.63;;
17965;SDS011;9108;53.204;10.424;2023-05-14T01:43:57;11.10;;;7.43;;
17965;SDS011;9108;53.204;10.424;2023-05-14T01:46:24;13.38;;;7.63;;
17965;SDS011;9108;53.204;10.424;2023-05-14T01:48:51;12.30;;;8.13;;
17965;SDS011;9108;53.204;10.424;2023-05-14T01:51:18;13.02;;;8.20;;
17965;SDS011;9108;53.204;10.424;2023-05-14T01:53:45;12.07;;;8.13;;
17965;SDS011;9108;53.204;10.424;2023-05-14T01:56:14;13.00;;;8.65;;
17965;SDS011;9108;53.204;10.424;2023-05-14T01:58:41;12.83;;;8.30;;
17965;SDS011;9108;53.204;10.424;2023-05-14T02:01:08;12.35;;;8.30;;
17965;SDS011;9108;53.204;10.424;2023-05-14T02:03:35;13.63;;;8.40;;
17965;SDS011;9108;53.204;10.424;2023-05-14T02:06:02;13.18;;;8.45;;
17965;SDS011;9108;53.204;10.424;2023-05-14T02:08:30;14.52;;;8.63;;
17965;SDS011;9108;53.204;10.424;2023-05-14T02:10:57;12.73;;;8.52;;
17965;SDS011;9108;53.204;10.424;2023-05-14T02:13:25;11.48;;;8.00;;
17965;SDS011;9108;53.204;10.424;2023-05-14T02:15:52;15.10;;;8.30;;
17965;SDS011;9108;53.204;10.424;2023-05-14T02:18:19;12.50;;;8.40;;
17965;SDS011;9108;53.204;10.424;2023-05-14T02:20:47;11.57;;;8.35;;
17965;SDS011;9108;53.204;10.424;2023-05-14T02:23:14;12.63;;;8.65;;
17965;SDS011;9108;53.204;10.424;2023-05-14T02:25:42;13.60;;;8.77;;
17965;SDS011;9108;53.204;10.424;2023-05-14T02:28:09;12.10;;;8.55;;
17965;SDS011;9108;53.204;10.424;2023-05-14T02:30:38;14.18;;;8.88;;
17965;SDS011;9108;53.204;10.424;2023-05-14T02:33:05;15.05;;;8.63;;
17965;SDS011;9108;53.204;10.424;2023-05-14T02:35:32;12.37;;;8.43;;
17965;SDS011;9108;53.204;10.424;2023-05-14T02:37:59;14.95;;;9.05;;
17965;SDS011;9108;53.204;10.424;2023-05-14T02:40:26;12.93;;;8.52;;
17965;SDS011;9108;53.204;10.424;2023-05-14T02:42:53;15.55;;;8.73;;
17965;SDS011;9108;53.204;10.424;2023-05-14T02:45:20;15.30;;;8.50;;
17965;SDS011;9108;53.204;10.424;2023-05-14T02:47:49;12.25;;;8.35;;
17965;SDS011;9108;53.204;10.424;2023-05-14T02:50:16;19.20;;;9.70;;
17965;SDS011;9108;53.204;10.424;2023-05-14T02:52:43;16.02;;;9.35;;
17965;SDS011;9108;53.204;10.424;2023-05-14T02:55:10;14.80;;;9.30;;
17965;SDS011;9108;53.204;10.424;2023-05-14T02:57:37;13.38;;;8.60;;
17965;SDS011;9108;53.204;10.424;2023-05-14T03:00:05;15.15;;;9.60;;
17965;SDS011;9108;53.204;10.424;2023-05-14T03:02:33;14.00;;;8.80;;
17965;SDS011;9108;53.204;10.424;2023-05-14T03:05:01;12.70;;;8.73;;
17965;SDS011;9108;53.204;10.424;2023-05-14T03:07:28;15.73;;;9.63;;
17965;SDS011;9108;53.204;10.424;2023-05-14T03:09:57;14.57;;;9.40;;
17965;SDS011;9108;53.204;10.424;2023-05-14T03:12:25;14.48;;;9.15;;
17965;SDS011;9108;53.204;10.424;2023-05-14T03:14:52;13.40;;;9.25;;
17965;SDS011;9108;53.204;10.424;2023-05-14T03:17:19;13.80;;;9.32;;
17965;SDS011;9108;53.204;10.424;2023-05-14T03:19:47;14.45;;;8.82;;
17965;SDS011;9108;53.204;10.424;2023-05-14T03:22:15;15.27;;;8.68;;
17965;SDS011;9108;53.204;10.424;2023-05-14T03:24:42;14.40;;;8.80;;
17965;SDS011;9108;53.204;10.424;2023-05-14T03:27:09;12.27;;;8.13;;
17965;SDS011;9108;53.204;10.424;2023-05-14T03:29:36;15.32;;;8.40;;
17965;SDS011;9108;53.204;10.424;2023-05-14T03:32:04;14.00;;;8.35;;
17965;SDS011;9108;53.204;10.424;2023-05-14T03:34:31;12.43;;;8.35;;
17965;SDS011;9108;53.204;10.424;2023-05-14T03:36:58;15.17;;;8.30;;
17965;SDS011;9108;53.204;10.424;2023-05-14T03:39:27;12.63;;;8.10;;
17965;SDS011;9108;53.204;10.424;2023-05-14T03:41:54;11.70;;;8.30;;
17965;SDS011;9108;53.204;10.424;2023-05-14T03:44:22;14.75;;;8.57;;
17965;SDS011;9108;53.204;10.424;2023-05-14T03:46:50;14.07;;;8.80;;
17965;SDS011;9108;53.204;10.424;2023-05-14T03:49:17;13.50;;;8.60;;
17965;SDS011;9108;53.204;10.424;2023-05-14T03:51:44;11.07;;;8.02;;
17965;SDS011;9108;53.204;10.424;2023-05-14T03:54:11;13.95;;;8.10;;
17965;SDS011;9108;53.204;10.424;2023-05-14T03:56:39;12.40;;;7.97;;
17965;SDS011;9108;53.204;10.424;2023-05-14T03:59:06;12.57;;;7.70;;
17965;SDS011;9108;53.204;10.424;2023-05-14T04:01:34;10.48;;;7.28;;
17965;SDS011;9108;53.204;10.424;2023-05-14T04:04:01;11.48;;;7.60;;
17965;SDS011;9108;53.204;10.424;2023-05-14T04:06:28;10.97;;;7.07;;
17965;SDS011;9108;53.204;10.424;2023-05-14T04:08:55;10.35;;;6.30;;
17965;SDS011;9108;53.204;10.424;2023-05-14T04:11:22;10.73;;;6.90;;
17965;SDS011;9108;53.204;10.424;2023-05-14T04:13:51;8.90;;;6.50;;
17965;SDS011;9108;53.204;10.424;2023-05-14T04:16:18;11.75;;;7.10;;
17965;SDS011;9108;53.204;10.424;2023-05-14T04:18:45;11.02;;;6.72;;
17965;SDS011;9108;53.204;10.424;2023-05-14T04:21:12;10.60;;;6.80;;
17965;SDS011;9108;53.204;10.424;2023-05-14T04:23:39;11.05;;;7.20;;
17965;SDS011;9108;53.204;10.424;2023-05-14T04:26:06;11.93;;;7.28;;
17965;SDS011;9108;53.204;10.424;2023-05-14T04:28:33;9.35;;;6.28;;
17965;SDS011;9108;53.204;10.424;2023-05-14T04:31:02;12.10;;;6.53;;
17965;SDS011;9108;53.204;10.424;2023-05-14T04:33:29;9.40;;;6.53;;
17965;SDS011;9108;53.204;10.424;2023-05-14T04:35:56;13.60;;;6.90;;
17965;SDS011;9108;53.204;10.424;2023-05-14T04:38:23;9.05;;;6.50;;
17965;SDS011;9108;53.204;10.424;2023-05-14T04:40:50;10.00;;;6.35;;
17965;SDS011;9108;53.204;10.424;2023-05-14T04:43:18;13.32;;;6.60;;
17965;SDS011;9108;53.204;10.424;2023-05-14T04:45:45;12.35;;;6.60;;
17965;SDS011;9108;53.204;10.424;2023-05-14T04:48:13;11.02;;;6.57;;
17965;SDS011;9108;53.204;10.424;2023-05-14T04:50:40;9.70;;;6.07;;
17965;SDS011;9108;53.204;10.424;2023-05-14T04:53:08;8.88;;;5.80;;
17965;SDS011;9108;53.204;10.424;2023-05-14T04:55:35;9.00;;;5.68;;
17965;SDS011;9108;53.204;10.424;2023-05-14T04:58:02;9.30;;;5.85;;
17965;SDS011;9108;53.204;10.424;2023-05-14T05:00:29;8.82;;;5.80;;
17965;SDS011;9108;53.204;10.424;2023-05-14T05:02:57;10.88;;;6.75;;
17965;SDS011;9108;53.204;10.424;2023-05-14T05:05:26;11.53;;;6.57;;
17965;SDS011;9108;53.204;10.424;2023-05-14T05:07:53;9.60;;;6.43;;
17965;SDS011;9108;53.204;10.424;2023-05-14T05:10:20;11.07;;;6.50;;
17965;SDS011;9108;53.204;10.424;2023-05-14T05:12:47;12.43;;;6.70;;
17965;SDS011;9108;53.204;10.424;2023-05-14T05:15:14;10.82;;;6.85;;
17965;SDS011;9108;53.204;10.424;2023-05-14T05:17:42;10.60;;;6.32;;
17965;SDS011;9108;53.204;10.424;2023-05-14T05:20:09;10.93;;;6.57;;
17965;SDS011;9108;53.204;10.424;2023-05-14T05:22:38;11.63;;;6.63;;
17965;SDS011;9108;53.204;10.424;2023-05-14T05:25:05;10.40;;;6.50;;
17965;SDS011;9108;53.204;10.424;2023-05-14T05:27:33;11.70;;;6.40;;
17965;SDS011;9108;53.204;10.424;2023-05-14T05:30:00;8.90;;;5.90;;
17965;SDS011;9108;53.204;10.424;2023-05-14T05:32:28;9.35;;;5.90;;
17965;SDS011;9108;53.204;10.424;2023-05-14T05:34:55;8.77;;;6.00;;
17965;SDS011;9108;53.204;10.424;2023-05-14T05:37:22;11.50;;;5.88;;
17965;SDS011;9108;53.204;10.424;2023-05-14T05:39:50;11.07;;;6.15;;
17965;SDS011;9108;53.204;10.424;2023-05-14T05:42:18;8.52;;;5.43;;
17965;SDS011;9108;53.204;10.424;2023-05-14T05:44:45;9.90;;;5.63;;
17965;SDS011;9108;53.204;10.424;2023-05-14T05:47:12;10.65;;;5.60;;
17965;SDS011;9108;53.204;10.424;2023-05-14T05:49:39;6.78;;;5.07;;
17965;SDS011;9108;53.204;10.424;2023-05-14T05:52:06;8.50;;;5.05;;
17965;SDS011;9108;53.204;10.424;2023-05-14T05:54:34;7.20;;;5.10;;
17965;SDS011;9108;53.204;10.424;2023-05-14T05:57:05;8.57;;;5.45;;
17965;SDS011;9108;53.204;10.424;2023-05-14T05:59:32;8.55;;;5.95;;
17965;SDS011;9108;53.204;10.424;2023-05-14T06:02:00;9.07;;;5.75;;
17965;SDS011;9108;53.204;10.424;2023-05-14T06:04:27;6.63;;;5.28;;
17965;SDS011;9108;53.204;10.424;2023-05-14T06:06:54;8.05;;;5.40;;
17965;SDS011;9108;53.204;10.424;2023-05-14T06:09:21;7.83;;;5.40;;
17965;SDS011;9108;53.204;10.424;2023-05-14T06:11:48;9.13;;;5.95;;
17965;SDS011;9108;53.204;10.424;2023-05-14T06:14:17;8.32;;;5.70;;
17965;SDS011;9108;53.204;10.424;2023-05-14T06:16:44;10.60;;;6.03;;
17965;SDS011;9108;53.204;10.424;2023-05-14T06:19:11;11.00;;;6.50;;
17965;SDS011;9108;53.204;10.424;2023-05-14T06:21:38;9.20;;;5.85;;
17965;SDS011;9108;53.204;10.424;2023-05-14T06:24:05;9.75;;;6.10;;
17965;SDS011;9108;53.204;10.424;2023-05-14T06:26:32;7.88;;;5.75;;
17965;SDS011;9108;53.204;10.424;2023-05-14T06:29:00;8.63;;;5.95;;
17965;SDS011;9108;53.204;10.424;2023-05-14T06:31:28;12.05;;;5.78;;
17965;SDS011;9108;53.204;10.424;2023-05-14T06:33:55;9.52;;;5.15;;
17965;SDS011;9108;53.204;10.424;2023-05-14T06:36:22;8.52;;;5.28;;
17965;SDS011;9108;53.204;10.424;2023-05-14T06:38:49;8.85;;;4.90;;
17965;SDS011;9108;53.204;10.424;2023-05-14T06:41:17;6.97;;;4.47;;
17965;SDS011;9108;53.204;10.424;2023-05-14T06:43:44;9.55;;;4.60;;
17965;SDS011;9108;53.204;10.424;2023-05-14T06:46:11;6.07;;;4.40;;
17965;SDS011;9108;53.204;10.424;2023-05-14T06:48:39;6.72;;;4.43;;
17965;SDS011;9108;53.204;10.424;2023-05-14T06:51:07;5.00;;;4.27;;
17965;SDS011;9108;53.204;10.424;2023-05-14T06:53:34;6.53;;;4.03;;
17965;SDS011;9108;53.204;10.424;2023-05-14T06:56:02;6.30;;;4.03;;
17965;SDS011;9108;53.204;10.424;2023-05-14T06:58:29;6.68;;;3.92;;
17965;SDS011;9108;53.204;10.424;2023-05-14T07:00:56;6.07;;;3.80;;
17965;SDS011;9108;53.204;10.424;2023-05-14T07:03:23;5.68;;;3.92;;
17965;SDS011;9108;53.204;10.424;2023-05-14T07:05:52;4.85;;;3.60;;
17965;SDS011;9108;53.204;10.424;2023-05-14T07:08:19;5.67;;;3.73;;
17965;SDS011;9108;53.204;10.424;2023-05-14T07:10:46;5.37;;;3.40;;
17965;SDS011;9108;53.204;10.424;2023-05-14T07:13:13;5.83;;;3.43;;
17965;SDS011;9108;53.204;10.424;2023-05-14T07:15:41;7.07;;;3.30;;
17965;SDS011;9108;53.204;10.424;2023-05-14T07:18:08;3.87;;;2.90;;
17965;SDS011;9108;53.204;10.424;2023-05-14T07:20:35;4.97;;;2.77;;
17965;SDS011;9108;53.204;10.424;2023-05-14T07:23:03;5.50;;;2.97;;
17965;SDS011;9108;53.204;10.424;2023-05-14T07:25:31;4.93;;;2.80;;
17965;SDS011;9108;53.204;10.424;2023-05-14T07:27:58;4.20;;;2.90;;
17965;SDS011;9108;53.204;10.424;2023-05-14T07:30:25;4.28;;;2.80;;
17965;SDS011;9108;53.204;10.424;2023-05-14T07:32:52;5.47;;;2.95;;
17965;SDS011;9108;53.204;10.424;2023-05-14T07:35:19;5.32;;;3.00;;
17965;SDS011;9108;53.204;10.424;2023-05-14T07:37:46;7.43;;;2.78;;
17965;SDS011;9108;53.204;10.424;2023-05-14T07:40:15;4.13;;;3.03;;
17965;SDS011;9108;53.204;10.424;2023-05-14T07:42:42;5.40;;;3.00;;
17965;SDS011;9108;53.204;10.424;2023-05-14T07:45:09;5.18;;;2.67;;
17965;SDS011;9108;53.204;10.424;2023-05-14T07:47:39;6.32;;;3.08;;
17965;SDS011;9108;53.204;10.424;2023-05-14T07:50:07;4.40;;;2.60;;
17965;SDS011;9108;53.204;10.424;2023-05-14T07:52:34;4.60;;;2.80;;
17965;SDS011;9108;53.204;10.424;2023-05-14T07:55:01;5.07;;;2.97;;
17965;SDS011;9108;53.204;10.424;2023-05-14T07:57:30;5.57;;;3.00;;
17965;SDS011;9108;53.204;10.424;2023-05-14T07:59:57;7.88;;;3.10;;
17965;SDS011;9108;53.204;10.424;2023-05-14T08:02:24;5.80;;;2.57;;
17965;SDS011;9108;53.204;10.424;2023-05-14T08:04:52;4.70;;;2.58;;
17965;SDS011;9108;53.204;10.424;2023-05-14T08:07:19;6.47;;;2.90;;
17965;SDS011;9108;53.204;10.424;2023-05-14T08:09:46;3.95;;;2.35;;
17965;SDS011;9108;53.204;10.424;2023-05-14T08:12:14;4.53;;;2.60;;
17965;SDS011;9108;53.204;10.424;2023-05-14T08:14:42;4.47;;;2.60;;
17965;SDS011;9108;53.204;10.424;2023-05-14T08:17:10;5.30;;;2.80;;
17965;SDS011;9108;53.204;10.424;2023-05-14T08:19:37;6.53;;;3.20;;
17965;SDS011;9108;53.204;10.424;2023-05-14T08:22:06;5.80;;;2.90;;
17965;SDS011;9108;53.204;10.424;2023-05-14T08:24:33;5.97;;;2.83;;
17965;SDS011;9108;53.204;10.424;2023-05-14T08:27:00;5.75;;;2.80;;
17965;SDS011;9108;53.204;10.424;2023-05-14T08:29:27;5.23;;;2.90;;
17965;SDS011;9108;53.204;10.424;2023-05-14T08:31:56;5.13;;;3.05;;
17965;SDS011;9108;53.204;10.424;2023-05-14T08:34:23;4.30;;;2.80;;
17965;SDS011;9108;53.204;10.424;2023-05-14T08:36:50;5.72;;;3.22;;
17965;SDS011;9108;53.204;10.424;2023-05-14T08:39:17;5.68;;;2.70;;
17965;SDS011;9108;53.204;10.424;2023-05-14T08:41:44;4.95;;;2.70;;
17965;SDS011;9108;53.204;10.424;2023-05-14T08:44:12;6.82;;;3.10;;
17965;SDS011;9108;53.204;10.424;2023-05-14T08:46:39;5.05;;;2.83;;
17965;SDS011;9108;53.204;10.424;2023-05-14T08:49:17;6.72;;;2.80;;
17965;SDS011;9108;53.204;10.424;2023-05-14T08:51:46;4.23;;;2.53;;
17965;SDS011;9108;53.204;10.424;2023-05-14T08:54:14;5.15;;;2.70;;
17965;SDS011;9108;53.204;10.424;2023-05-14T08:56:42;6.63;;;2.80;;
17965;SDS011;9108;53.204;10.424;2023-05-14T08:59:10;5.03;;;2.90;;
17965;SDS011;9108;53.204;10.424;2023-05-14T09:01:37;6.88;;;2.80;;
17965;SDS011;9108;53.204;10.424;2023-05-14T09:04:05;7.43;;;2.95;;
17965;SDS011;9108;53.204;10.424;2023-05-14T09:06:34;9.00;;;2.80;;
17965;SDS011;9108;53.204;10.424;2023-05-14T09:09:02;7.32;;;2.80;;
17965;SDS011;9108;53.204;10.424;2023-05-14T09:11:29;4.22;;;2.75;;
17965;SDS011;9108;53.204;10.424;2023-05-14T09:13:57;4.30;;;2.80;;
17965;SDS011;9108;53.204;10.424;2023-05-14T09:16:24;5.50;;;2.97;;
17965;SDS011;9108;53.204;10.424;2023-05-14T09:18:51;5.25;;;3.00;;
17965;SDS011;9108;53.204;10.424;2023-05-14T09:21:19;7.13;;;2.93;;
17965;SDS011;9108;53.204;10.424;2023-05-14T09:23:48;5.63;;;2.35;;
17965;SDS011;9108;53.204;10.424;2023-05-14T09:26:20;4.97;;;2.90;;
17965;SDS011;9108;53.204;10.424;2023-05-14T09:28:52;6.30;;;2.83;;
17965;SDS011;9108;53.204;10.424;2023-05-14T09:31:19;4.93;;;2.80;;
17965;SDS011;9108;53.204;10.424;2023-05-14T09:33:48;6.93;;;2.50;;
17965;SDS011;9108;53.204;10.424;2023-05-14T09:36:16;6.73;;;2.43;;
17965;SDS011;9108;53.204;10.424;2023-05-14T09:38:43;5.03;;;2.50;;
17965;SDS011;9108;53.204;10.424;2023-05-14T09:41:11;4.45;;;2.30;;
17965;SDS011;9108;53.204;10.424;2023-05-14T09:43:39;4.27;;;2.23;;
17965;SDS011;9108;53.204;10.424;2023-05-14T09:46:06;4.80;;;2.33;;
17965;SDS011;9108;53.204;10.424;2023-05-14T09:48:34;5.18;;;2.30;;
17965;SDS011;9108;53.204;10.424;2023-05-14T09:51:01;7.15;;;2.40;;
17965;SDS011;9108;53.204;10.424;2023-05-14T09:53:29;6.97;;;2.60;;
17965;SDS011;9108;53.204;10.424;2023-05-14T09:55:58;5.57;;;2.50;;
17965;SDS011;9108;53.204;10.424;2023-05-14T09:58:26;5.25;;;2.42;;
17965;SDS011;9108;53.204;10.424;2023-05-14T10:00:54;6.78;;;2.65;;
17965;SDS011;9108;53.204;10.424;2023-05-14T10:03:23;5.43;;;2.63;;
17965;SDS011;9108;53.204;10.424;2023-05-14T10:05:51;5.65;;;2.50;;
17965;SDS011;9108;53.204;10.424;2023-05-14T10:08:19;6.90;;;2.50;;
17965;SDS011;9108;53.204;10.424;2023-05-14T10:10:48;5.50;;;2.60;;
17965;SDS011;9108;53.204;10.424;2023-05-14T10:13:17;5.68;;;2.30;;
17965;SDS011;9108;53.204;10.424;2023-05-14T10:15:47;4.80;;;2.47;;
17965;SDS011;9108;53.204;10.424;2023-05-14T10:18:16;6.28;;;2.55;;
17965;SDS011;9108;53.204;10.424;2023-05-14T10:20:45;6.85;;;2.65;;
17965;SDS011;9108;53.204;10.424;2023-05-14T10:23:14;4.72;;;2.60;;
17965;SDS011;9108;53.204;10.424;2023-05-14T10:25:41;6.18;;;2.78;;
17965;SDS011;9108;53.204;10.424;2023-05-14T10:28:08;6.32;;;3.05;;
17965;SDS011;9108;53.204;10.424;2023-05-14T10:30:38;7.72;;;3.40;;
17965;SDS011;9108;53.204;10.424;2023-05-14T10:33:10;4.88;;;2.60;;
17965;SDS011;9108;53.204;10.424;2023-05-14T10:38:24;6.55;;;2.90;;
17965;SDS011;9108;53.204;10.424;2023-05-14T10:40:53;5.38;;;2.70;;
17965;SDS011;9108;53.204;10.424;2023-05-14T10:43:20;4.57;;;2.70;;
17965;SDS011;9108;53.204;10.424;2023-05-14T10:45:50;5.70;;;2.67;;
17965;SDS011;9108;53.204;10.424;2023-05-14T10:48:18;6.78;;;2.70;;
17965;SDS011;9108;53.204;10.424;2023-05-14T10:50:46;6.90;;;2.83;;
17965;SDS011;9108;53.204;10.424;2023-05-14T10:53:13;7.10;;;2.95;;
17965;SDS011;9108;53.204;10.424;2023-05-14T10:55:41;5.97;;;2.92;;
17965;SDS011;9108;53.204;10.424;2023-05-14T10:58:08;6.13;;;2.65;;
17965;SDS011;9108;53.204;10.424;2023-05-14T11:00:36;5.13;;;2.80;;
17965;SDS011;9108;53.204;10.424;2023-05-14T11:03:04;5.72;;;2.90;;
17965;SDS011;9108;53.204;10.424;2023-05-14T11:05:33;5.10;;;2.95;;
17965;SDS011;9108;53.204;10.424;2023-05-14T11:08:02;5.18;;;2.88;;
17965;SDS011;9108;53.204;10.424;2023-05-14T11:10:30;5.20;;;2.80;;
17965;SDS011;9108;53.204;10.424;2023-05-14T11:12:58;8.02;;;3.15;;
17965;SDS011;9108;53.204;10.424;2023-05-14T11:15:25;5.03;;;2.70;;
17965;SDS011;9108;53.204;10.424;2023-05-14T11:17:53;6.50;;;2.92;;
17965;SDS011;9108;53.204;10.424;2023-05-14T11:20:20;5.90;;;2.83;;
17965;SDS011;9108;53.204;10.424;2023-05-14T11:22:48;5.85;;;3.03;;
17965;SDS011;9108;53.204;10.424;2023-05-14T11:25:16;6.72;;;3.00;;
17965;SDS011;9108;53.204;10.424;2023-05-14T11:27:44;6.03;;;2.93;;
17965;SDS011;9108;53.204;10.424;2023-05-14T11:30:13;7.15;;;2.90;;
17965;SDS011;9108;53.204;10.424;2023-05-14T11:32:40;4.47;;;2.80;;
17965;SDS011;9108;53.204;10.424;2023-05-14T11:35:08;6.38;;;3.00;;
17965;SDS011;9108;53.204;10.424;2023-05-14T11:37:35;6.03;;;2.70;;
17965;SDS011;9108;53.204;10.424;2023-05-14T11:40:05;6.68;;;3.00;;
17965;SDS011;9108;53.204;10.424;2023-05-14T11:42:33;7.78;;;2.83;;
17965;SDS011;9108;53.204;10.424;2023-05-14T11:45:00;6.13;;;2.92;;
17965;SDS011;9108;53.204;10.424;2023-05-14T11:47:28;5.68;;;2.83;;
17965;SDS011;9108;53.204;10.424;2023-05-14T11:49:55;5.95;;;2.90;;
17965;SDS011;9108;53.204;10.424;2023-05-14T11:52:22;7.97;;;2.80;;
17965;SDS011;9108;53.204;10.424;2023-05-14T11:54:49;6.05;;;3.05;;
17965;SDS011;9108;53.204;10.424;2023-05-14T11:57:18;6.75;;;2.90;;
17965;SDS011;9108;53.204;10.424;2023-05-14T11:59:46;6.28;;;2.85;;
17965;SDS011;9108;53.204;10.424;2023-05-14T12:02:14;4.80;;;2.90;;
17965;SDS011;9108;53.204;10.424;2023-05-14T12:04:42;6.55;;;2.88;;
17965;SDS011;9108;53.204;10.424;2023-05-14T12:07:10;5.45;;;3.00;;
17965;SDS011;9108;53.204;10.424;2023-05-14T12:09:39;6.45;;;2.65;;
17965;SDS011;9108;53.204;10.424;2023-05-14T12:12:07;6.10;;;3.15;;
17965;SDS011;9108;53.204;10.424;2023-05-14T12:14:37;8.15;;;3.10;;
17965;SDS011;9108;53.204;10.424;2023-05-14T12:17:10;7.45;;;3.03;;
17965;SDS011;9108;53.204;10.424;2023-05-14T12:19:38;6.30;;;3.20;;
17965;SDS011;9108;53.204;10.424;2023-05-14T12:22:06;5.18;;;3.17;;
17965;SDS011;9108;53.204;10.424;2023-05-14T12:24:33;5.68;;;3.33;;
17965;SDS011;9108;53.204;10.424;2023-05-14T12:27:01;6.97;;;3.15;;
17965;SDS011;9108;53.204;10.424;2023-05-14T12:29:28;5.93;;;3.20;;
17965;SDS011;9108;53.204;10.424;2023-05-14T12:31:57;6.70;;;3.25;;
17965;SDS011;9108;53.204;10.424;2023-05-14T12:34:24;10.10;;;3.40;;
17965;SDS011;9108;53.204;10.424;2023-05-14T12:36:52;7.10;;;3.40;;
17965;SDS011;9108;53.204;10.424;2023-05-14T12:39:19;6.97;;;3.38;;
17965;SDS011;9108;53.204;10.424;2023-05-14T12:41:46;6.50;;;3.42;;
17965;SDS011;9108;53.204;10.424;2023-05-14T12:44:13;5.20;;;2.95;;
17965;SDS011;9108;53.204;10.424;2023-05-14T12:46:40;6.75;;;3.20;;
17965;SDS011;9108;53.204;10.424;2023-05-14T12:49:09;4.88;;;2.80;;
17965;SDS011;9108;53.204;10.424;2023-05-14T12:51:36;6.93;;;2.92;;
17965;SDS011;9108;53.204;10.424;2023-05-14T12:54:03;8.77;;;3.10;;
17965;SDS011;9108;53.204;10.424;2023-05-14T12:56:30;7.10;;;3.10;;
17965;SDS011;9108;53.204;10.424;2023-05-14T12:58:57;4.63;;;3.00;;
17965;SDS011;9108;53.204;10.424;2023-05-14T13:01:25;6.90;;;3.10;;
17965;SDS011;9108;53.204;10.424;2023-05-14T13:03:52;5.17;;;2.83;;
17965;SDS011;9108;53.204;10.424;2023-05-14T13:06:20;5.15;;;2.83;;
17965;SDS011;9108;53.204;10.424;2023-05-14T13:08:47;12.27;;;3.33;;
17965;SDS011;9108;53.204;10.424;2023-05-14T13:11:15;7.82;;;3.05;;
17965;SDS011;9108;53.204;10.424;2023-05-14T13:13:42;5.97;;;2.88;;
17965;SDS011;9108;53.204;10.424;2023-05-14T13:16:09;5.93;;;2.72;;
17965;SDS011;9108;53.204;10.424;2023-05-14T13:18:40;6.70;;;2.75;;
17965;SDS011;9108;53.204;10.424;2023-05-14T13:21:07;7.00;;;2.95;;
17965;SDS011;9108;53.204;10.424;2023-05-14T13:23:36;5.50;;;3.13;;
17965;SDS011;9108;53.204;10.424;2023-05-14T13:26:03;8.27;;;3.00;;
17965;SDS011;9108;53.204;10.424;2023-05-14T13:28:30;6.32;;;2.80;;
17965;SDS011;9108;53.204;10.424;2023-05-14T13:31:04;5.13;;;2.90;;
17965;SDS011;9108;53.204;10.424;2023-05-14T13:33:32;7.70;;;3.20;;
17965;SDS011;9108;53.204;10.424;2023-05-14T13:35:59;6.22;;;2.90;;
17965;SDS011;9108;53.204;10.424;2023-05-14T13:38:26;6.07;;;2.60;;
17965;SDS011;9108;53.204;10.424;2023-05-14T13:40:55;7.45;;;2.97;;
17965;SDS011;9108;53.204;10.424;2023-05-14T13:43:26;6.63;;;3.03;;
17965;SDS011;9108;53.204;10.424;2023-05-14T13:45:53;6.10;;;2.97;;
17965;SDS011;9108;53.204;10.424;2023-05-14T13:48:21;10.27;;;3.08;;
17965;SDS011;9108;53.204;10.424;2023-05-14T13:50:48;6.68;;;3.00;;
17965;SDS011;9108;53.204;10.424;2023-05-14T13:53:16;7.43;;;3.00;;
17965;SDS011;9108;53.204;10.424;2023-05-14T13:55:43;7.88;;;3.00;;
17965;SDS011;9108;53.204;10.424;2023-05-14T13:58:11;7.82;;;3.17;;
17965;SDS011;9108;53.204;10.424;2023-05-14T14:00:38;5.88;;;3.00;;
17965;SDS011;9108;53.204;10.424;2023-05-14T14:03:06;6.30;;;2.90;;
17965;SDS011;9108;53.204;10.424;2023-05-14T14:05:33;7.57;;;2.80;;
17965;SDS011;9108;53.204;10.424;2023-05-14T14:08:01;7.65;;;3.00;;
17965;SDS011;9108;53.204;10.424;2023-05-14T14:10:28;5.10;;;2.83;;
17965;SDS011;9108;53.204;10.424;2023-05-14T14:12:55;6.78;;;2.75;;
17965;SDS011;9108;53.204;10.424;2023-05-14T14:15:23;8.85;;;3.22;;
17965;SDS011;9108;53.204;10.424;2023-05-14T14:17:50;7.00;;;3.10;;
17965;SDS011;9108;53.204;10.424;2023-05-14T14:20:17;6.90;;;3.08;;
17965;SDS011;9108;53.204;10.424;2023-05-14T14:22:45;8.80;;;3.10;;
17965;SDS011;9108;53.204;10.424;2023-05-14T14:25:12;7.38;;;3.17;;
17965;SDS011;9108;53.204;10.424;2023-05-14T14:27:39;7.57;;;3.00;;
17965;SDS011;9108;53.204;10.424;2023-05-14T14:30:07;6.28;;;3.10;;
17965;SDS011;9108;53.204;10.424;2023-05-14T14:32:40;7.57;;;2.88;;
17965;SDS011;9108;53.204;10.424;2023-05-14T14:35:08;6.23;;;3.00;;
17965;SDS011;9108;53.204;10.424;2023-05-14T14:37:35;6.40;;;3.22;;
17965;SDS011;9108;53.204;10.424;2023-05-14T14:40:03;8.23;;;3.25;;
17965;SDS011;9108;53.204;10.424;2023-05-14T14:42:31;4.90;;;2.80;;
17965;SDS011;9108;53.204;10.424;2023-05-14T14:44:58;7.50;;;3.08;;
17965;SDS011;9108;53.204;10.424;2023-05-14T14:47:25;6.78;;;3.10;;